WMKP/PEN METAR and TAF weather

Enter ICAO airport designator
Station Type Date Time Source
WMKP METAR 2020/01/23 15:00 UTC NOAA

WMKP 231500Z VRB03KT 9000 FEW025 29/24 Q1012 NOSIG


Station Type Date Time Source
WMKP Decoded METAR 2020/01/23 15:00 UTC NOAA

Penang / Bayan Lepas, Malaysia (WMKP) 05-18N 100-16E 4M
Jan 23, 2020 - 10:00 AM EST / 2020.01.23 1500 UTC
Wind: Variable at 3 MPH (3 KT):0
Visibility: 5 mile(s):0
Sky conditions: mostly clear
Temperature: 84 F (29 C)
Dew Point: 75 F (24 C)
Relative Humidity: 74%
Pressure (altimeter): 29.88 in. Hg (1012 hPa)
ob: WMKP 231500Z VRB03KT 9000 FEW025 29/24 Q1012 NOSIG
cycle: 15

Station Type Date Time Source
WMKP TAF 2020/01/23 12:15 UTC NOAA

TAF WMKP 231100Z 2312/2412 VRB03KT 9000 FEW025
BECMG 2400/2402 03005KT FEW020
BECMG 2405/2407 22008KT 9999

Example: see airport list